sensor_id;sensor_type;location;lat;lon;timestamp;P1;durP1;ratioP1;P2;durP2;ratioP2
12359;SDS011;6244;51.460;7.090;2023-03-08T00:00:21;31.30;;;17.77;;
12359;SDS011;6244;51.460;7.090;2023-03-08T00:05:19;25.92;;;16.55;;
12359;SDS011;6244;51.460;7.090;2023-03-08T00:10:16;29.55;;;15.43;;
12359;SDS011;6244;51.460;7.090;2023-03-08T00:15:13;28.00;;;15.95;;
12359;SDS011;6244;51.460;7.090;2023-03-08T00:20:11;31.02;;;14.85;;
12359;SDS011;6244;51.460;7.090;2023-03-08T00:25:10;26.60;;;12.68;;
12359;SDS011;6244;51.460;7.090;2023-03-08T00:30:10;24.88;;;14.55;;
12359;SDS011;6244;51.460;7.090;2023-03-08T00:35:08;29.70;;;15.57;;
12359;SDS011;6244;51.460;7.090;2023-03-08T00:40:05;30.23;;;16.25;;
12359;SDS011;6244;51.460;7.090;2023-03-08T00:45:05;31.40;;;16.45;;
12359;SDS011;6244;51.460;7.090;2023-03-08T00:50:03;30.20;;;15.57;;
12359;SDS011;6244;51.460;7.090;2023-03-08T00:55:00;33.30;;;16.50;;
12359;SDS011;6244;51.460;7.090;2023-03-08T00:59:57;24.13;;;12.13;;
12359;SDS011;6244;51.460;7.090;2023-03-08T01:04:55;22.52;;;12.95;;
12359;SDS011;6244;51.460;7.090;2023-03-08T01:09:52;30.92;;;17.25;;
12359;SDS011;6244;51.460;7.090;2023-03-08T01:14:49;33.80;;;16.83;;
12359;SDS011;6244;51.460;7.090;2023-03-08T01:19:46;28.83;;;16.83;;
12359;SDS011;6244;51.460;7.090;2023-03-08T01:24:44;14.55;;;9.77;;
12359;SDS011;6244;51.460;7.090;2023-03-08T01:29:41;27.77;;;14.60;;
12359;SDS011;6244;51.460;7.090;2023-03-08T01:34:38;28.70;;;15.00;;
12359;SDS011;6244;51.460;7.090;2023-03-08T01:39:34;28.30;;;14.90;;
12359;SDS011;6244;51.460;7.090;2023-03-08T01:49:51;20.88;;;11.63;;
12359;SDS011;6244;51.460;7.090;2023-03-08T01:54:50;29.67;;;14.65;;
12359;SDS011;6244;51.460;7.090;2023-03-08T01:59:50;31.77;;;16.15;;
12359;SDS011;6244;51.460;7.090;2023-03-08T02:04:51;27.40;;;15.48;;
12359;SDS011;6244;51.460;7.090;2023-03-08T02:09:47;27.40;;;15.10;;
12359;SDS011;6244;51.460;7.090;2023-03-08T02:14:45;28.33;;;15.10;;
12359;SDS011;6244;51.460;7.090;2023-03-08T02:19:44;30.33;;;16.20;;
12359;SDS011;6244;51.460;7.090;2023-03-08T02:24:45;25.90;;;15.40;;
12359;SDS011;6244;51.460;7.090;2023-03-08T02:29:41;31.27;;;15.73;;
12359;SDS011;6244;51.460;7.090;2023-03-08T02:34:38;27.02;;;15.30;;
12359;SDS011;6244;51.460;7.090;2023-03-08T02:39:34;30.58;;;16.10;;
12359;SDS011;6244;51.460;7.090;2023-03-08T02:44:32;31.23;;;17.27;;
12359;SDS011;6244;51.460;7.090;2023-03-08T02:49:28;27.80;;;16.30;;
12359;SDS011;6244;51.460;7.090;2023-03-08T02:54:25;31.77;;;17.88;;
12359;SDS011;6244;51.460;7.090;2023-03-08T02:59:22;24.98;;;15.05;;
12359;SDS011;6244;51.460;7.090;2023-03-08T03:04:20;27.33;;;14.70;;
12359;SDS011;6244;51.460;7.090;2023-03-08T03:09:16;30.50;;;16.38;;
12359;SDS011;6244;51.460;7.090;2023-03-08T03:14:12;25.63;;;13.85;;
12359;SDS011;6244;51.460;7.090;2023-03-08T03:19:09;25.75;;;13.65;;
12359;SDS011;6244;51.460;7.090;2023-03-08T03:24:07;25.45;;;14.13;;
12359;SDS011;6244;51.460;7.090;2023-03-08T03:29:04;23.77;;;12.65;;
12359;SDS011;6244;51.460;7.090;2023-03-08T03:34:00;20.85;;;12.73;;
12359;SDS011;6244;51.460;7.090;2023-03-08T03:38:57;26.48;;;14.73;;
12359;SDS011;6244;51.460;7.090;2023-03-08T03:43:55;25.13;;;14.45;;
12359;SDS011;6244;51.460;7.090;2023-03-08T03:48:53;24.65;;;13.77;;
12359;SDS011;6244;51.460;7.090;2023-03-08T03:53:49;18.75;;;12.23;;
12359;SDS011;6244;51.460;7.090;2023-03-08T03:58:46;24.23;;;12.70;;
12359;SDS011;6244;51.460;7.090;2023-03-08T04:03:44;28.02;;;14.00;;
12359;SDS011;6244;51.460;7.090;2023-03-08T04:08:41;24.05;;;13.38;;
12359;SDS011;6244;51.460;7.090;2023-03-08T04:13:38;23.70;;;13.70;;
12359;SDS011;6244;51.460;7.090;2023-03-08T04:18:35;25.88;;;13.43;;
12359;SDS011;6244;51.460;7.090;2023-03-08T04:23:33;27.33;;;13.93;;
12359;SDS011;6244;51.460;7.090;2023-03-08T04:28:30;25.45;;;13.32;;
12359;SDS011;6244;51.460;7.090;2023-03-08T04:33:27;26.05;;;13.98;;
12359;SDS011;6244;51.460;7.090;2023-03-08T04:38:24;26.33;;;14.77;;
12359;SDS011;6244;51.460;7.090;2023-03-08T04:43:22;25.15;;;13.93;;
12359;SDS011;6244;51.460;7.090;2023-03-08T04:48:18;26.27;;;13.68;;
12359;SDS011;6244;51.460;7.090;2023-03-08T04:53:15;23.33;;;12.65;;
12359;SDS011;6244;51.460;7.090;2023-03-08T04:58:11;22.40;;;13.80;;
12359;SDS011;6244;51.460;7.090;2023-03-08T05:03:09;24.45;;;12.88;;
12359;SDS011;6244;51.460;7.090;2023-03-08T05:08:08;23.85;;;11.85;;
12359;SDS011;6244;51.460;7.090;2023-03-08T05:13:04;29.55;;;14.35;;
12359;SDS011;6244;51.460;7.090;2023-03-08T05:18:01;26.77;;;12.65;;
12359;SDS011;6244;51.460;7.090;2023-03-08T05:22:59;22.75;;;13.23;;
12359;SDS011;6244;51.460;7.090;2023-03-08T05:27:55;27.77;;;14.32;;
12359;SDS011;6244;51.460;7.090;2023-03-08T05:32:52;23.17;;;13.00;;
12359;SDS011;6244;51.460;7.090;2023-03-08T05:37:48;25.60;;;13.40;;
12359;SDS011;6244;51.460;7.090;2023-03-08T05:42:46;26.08;;;13.32;;
12359;SDS011;6244;51.460;7.090;2023-03-08T05:47:42;25.45;;;13.63;;
12359;SDS011;6244;51.460;7.090;2023-03-08T05:52:40;25.60;;;12.82;;
12359;SDS011;6244;51.460;7.090;2023-03-08T05:57:37;22.20;;;10.98;;
12359;SDS011;6244;51.460;7.090;2023-03-08T06:02:35;14.68;;;8.65;;
12359;SDS011;6244;51.460;7.090;2023-03-08T06:07:31;17.73;;;9.70;;
12359;SDS011;6244;51.460;7.090;2023-03-08T06:12:28;20.65;;;12.02;;
12359;SDS011;6244;51.460;7.090;2023-03-08T06:17:24;17.83;;;10.20;;
12359;SDS011;6244;51.460;7.090;2023-03-08T06:22:22;14.48;;;8.02;;
12359;SDS011;6244;51.460;7.090;2023-03-08T06:27:19;12.73;;;8.05;;
12359;SDS011;6244;51.460;7.090;2023-03-08T06:32:16;14.23;;;9.32;;
12359;SDS011;6244;51.460;7.090;2023-03-08T06:37:12;17.25;;;8.95;;
12359;SDS011;6244;51.460;7.090;2023-03-08T06:42:11;14.73;;;8.55;;
12359;SDS011;6244;51.460;7.090;2023-03-08T06:47:08;14.02;;;7.95;;
12359;SDS011;6244;51.460;7.090;2023-03-08T06:52:04;16.05;;;8.35;;
12359;SDS011;6244;51.460;7.090;2023-03-08T06:57:01;13.63;;;8.07;;
12359;SDS011;6244;51.460;7.090;2023-03-08T07:01:59;11.20;;;7.25;;
12359;SDS011;6244;51.460;7.090;2023-03-08T07:06:56;9.85;;;5.15;;
12359;SDS011;6244;51.460;7.090;2023-03-08T07:11:53;8.88;;;4.88;;
12359;SDS011;6244;51.460;7.090;2023-03-08T07:16:49;7.28;;;4.70;;
12359;SDS011;6244;51.460;7.090;2023-03-08T07:21:47;9.18;;;5.80;;
12359;SDS011;6244;51.460;7.090;2023-03-08T07:26:43;8.82;;;5.13;;
12359;SDS011;6244;51.460;7.090;2023-03-08T07:31:40;6.40;;;4.70;;
12359;SDS011;6244;51.460;7.090;2023-03-08T07:36:37;7.47;;;4.82;;
12359;SDS011;6244;51.460;7.090;2023-03-08T07:41:36;6.80;;;3.88;;
12359;SDS011;6244;51.460;7.090;2023-03-08T07:46:32;6.45;;;3.80;;
12359;SDS011;6244;51.460;7.090;2023-03-08T07:51:29;5.65;;;3.67;;
12359;SDS011;6244;51.460;7.090;2023-03-08T07:56:25;6.43;;;3.60;;
12359;SDS011;6244;51.460;7.090;2023-03-08T08:01:23;5.78;;;3.90;;
12359;SDS011;6244;51.460;7.090;2023-03-08T08:06:20;5.80;;;3.50;;
12359;SDS011;6244;51.460;7.090;2023-03-08T08:11:17;4.65;;;3.17;;
12359;SDS011;6244;51.460;7.090;2023-03-08T08:16:15;4.85;;;3.25;;
12359;SDS011;6244;51.460;7.090;2023-03-08T08:21:13;4.88;;;2.95;;
12359;SDS011;6244;51.460;7.090;2023-03-08T08:26:12;3.58;;;2.65;;
12359;SDS011;6244;51.460;7.090;2023-03-08T08:31:11;3.40;;;2.88;;
12359;SDS011;6244;51.460;7.090;2023-03-08T08:36:10;3.75;;;2.60;;
12359;SDS011;6244;51.460;7.090;2023-03-08T08:41:10;3.92;;;2.58;;
12359;SDS011;6244;51.460;7.090;2023-03-08T08:46:09;7.50;;;3.15;;
12359;SDS011;6244;51.460;7.090;2023-03-08T08:51:06;3.30;;;3.00;;
12359;SDS011;6244;51.460;7.090;2023-03-08T08:56:12;2.80;;;2.50;;
12359;SDS011;6244;51.460;7.090;2023-03-08T09:01:13;3.47;;;2.83;;
12359;SDS011;6244;51.460;7.090;2023-03-08T09:06:11;5.90;;;3.13;;
12359;SDS011;6244;51.460;7.090;2023-03-08T09:11:08;5.60;;;3.20;;
12359;SDS011;6244;51.460;7.090;2023-03-08T09:16:13;4.97;;;3.03;;
12359;SDS011;6244;51.460;7.090;2023-03-08T09:21:13;4.47;;;3.50;;
12359;SDS011;6244;51.460;7.090;2023-03-08T09:26:10;5.20;;;3.97;;
12359;SDS011;6244;51.460;7.090;2023-03-08T09:31:08;5.15;;;3.85;;
12359;SDS011;6244;51.460;7.090;2023-03-08T09:36:08;6.10;;;4.30;;
12359;SDS011;6244;51.460;7.090;2023-03-08T09:41:10;7.68;;;4.63;;
12359;SDS011;6244;51.460;7.090;2023-03-08T09:46:19;4.53;;;3.97;;
12359;SDS011;6244;51.460;7.090;2023-03-08T09:51:20;8.65;;;4.88;;
12359;SDS011;6244;51.460;7.090;2023-03-08T09:56:23;5.45;;;3.83;;
12359;SDS011;6244;51.460;7.090;2023-03-08T10:01:33;4.22;;;3.65;;
12359;SDS011;6244;51.460;7.090;2023-03-08T10:06:34;5.65;;;4.18;;
12359;SDS011;6244;51.460;7.090;2023-03-08T10:16:41;6.55;;;4.88;;
12359;SDS011;6244;51.460;7.090;2023-03-08T10:21:40;4.93;;;3.92;;
12359;SDS011;6244;51.460;7.090;2023-03-08T10:26:39;5.55;;;4.10;;
12359;SDS011;6244;51.460;7.090;2023-03-08T10:31:36;6.47;;;4.07;;
12359;SDS011;6244;51.460;7.090;2023-03-08T10:36:44;4.90;;;3.97;;
12359;SDS011;6244;51.460;7.090;2023-03-08T10:41:43;5.05;;;3.85;;
12359;SDS011;6244;51.460;7.090;2023-03-08T10:46:46;5.97;;;3.90;;
12359;SDS011;6244;51.460;7.090;2023-03-08T10:51:53;5.63;;;3.90;;
12359;SDS011;6244;51.460;7.090;2023-03-08T10:56:52;5.93;;;3.75;;
12359;SDS011;6244;51.460;7.090;2023-03-08T11:01:51;4.70;;;3.80;;
12359;SDS011;6244;51.460;7.090;2023-03-08T11:06:49;5.43;;;3.70;;
12359;SDS011;6244;51.460;7.090;2023-03-08T11:11:47;7.13;;;4.13;;
12359;SDS011;6244;51.460;7.090;2023-03-08T11:16:48;6.53;;;4.57;;
12359;SDS011;6244;51.460;7.090;2023-03-08T11:21:51;5.57;;;3.92;;
12359;SDS011;6244;51.460;7.090;2023-03-08T11:27:01;6.88;;;5.10;;
12359;SDS011;6244;51.460;7.090;2023-03-08T11:32:10;6.78;;;4.80;;
12359;SDS011;6244;51.460;7.090;2023-03-08T11:37:17;6.88;;;4.47;;
12359;SDS011;6244;51.460;7.090;2023-03-08T11:42:24;7.45;;;5.13;;
12359;SDS011;6244;51.460;7.090;2023-03-08T11:47:41;5.82;;;4.05;;
12359;SDS011;6244;51.460;7.090;2023-03-08T11:53:00;4.47;;;3.83;;
12359;SDS011;6244;51.460;7.090;2023-03-08T11:58:08;5.18;;;3.53;;
12359;SDS011;6244;51.460;7.090;2023-03-08T12:03:11;6.00;;;4.68;;
12359;SDS011;6244;51.460;7.090;2023-03-08T12:08:12;6.35;;;4.65;;
12359;SDS011;6244;51.460;7.090;2023-03-08T12:13:14;5.95;;;4.32;;
12359;SDS011;6244;51.460;7.090;2023-03-08T12:18:17;9.45;;;5.90;;
12359;SDS011;6244;51.460;7.090;2023-03-08T12:23:19;5.82;;;4.85;;
12359;SDS011;6244;51.460;7.090;2023-03-08T12:28:25;6.57;;;4.93;;
12359;SDS011;6244;51.460;7.090;2023-03-08T12:33:25;8.30;;;5.60;;
12359;SDS011;6244;51.460;7.090;2023-03-08T12:38:31;8.40;;;6.15;;
12359;SDS011;6244;51.460;7.090;2023-03-08T12:43:32;6.05;;;5.32;;
12359;SDS011;6244;51.460;7.090;2023-03-08T12:48:30;8.18;;;5.82;;
12359;SDS011;6244;51.460;7.090;2023-03-08T12:53:31;7.38;;;6.03;;
12359;SDS011;6244;51.460;7.090;2023-03-08T12:58:33;9.75;;;6.88;;
12359;SDS011;6244;51.460;7.090;2023-03-08T13:03:37;10.10;;;6.45;;
12359;SDS011;6244;51.460;7.090;2023-03-08T13:08:35;9.05;;;6.88;;
12359;SDS011;6244;51.460;7.090;2023-03-08T13:13:42;8.77;;;6.63;;
12359;SDS011;6244;51.460;7.090;2023-03-08T13:18:44;8.70;;;5.82;;
12359;SDS011;6244;51.460;7.090;2023-03-08T13:23:45;7.82;;;5.72;;
12359;SDS011;6244;51.460;7.090;2023-03-08T13:28:46;6.60;;;5.20;;
12359;SDS011;6244;51.460;7.090;2023-03-08T13:33:44;8.82;;;6.50;;
12359;SDS011;6244;51.460;7.090;2023-03-08T13:38:43;9.63;;;6.43;;
12359;SDS011;6244;51.460;7.090;2023-03-08T13:43:50;9.30;;;6.80;;
12359;SDS011;6244;51.460;7.090;2023-03-08T13:48:55;9.48;;;6.50;;
12359;SDS011;6244;51.460;7.090;2023-03-08T13:53:53;8.90;;;6.97;;
12359;SDS011;6244;51.460;7.090;2023-03-08T13:58:51;11.63;;;7.88;;
12359;SDS011;6244;51.460;7.090;2023-03-08T14:03:50;10.20;;;6.88;;
12359;SDS011;6244;51.460;7.090;2023-03-08T14:08:49;9.52;;;7.45;;
12359;SDS011;6244;51.460;7.090;2023-03-08T14:13:48;9.02;;;6.68;;
12359;SDS011;6244;51.460;7.090;2023-03-08T14:18:48;9.35;;;6.93;;
12359;SDS011;6244;51.460;7.090;2023-03-08T14:23:45;9.23;;;6.95;;
12359;SDS011;6244;51.460;7.090;2023-03-08T14:28:44;8.30;;;6.00;;
12359;SDS011;6244;51.460;7.090;2023-03-08T14:33:40;9.05;;;6.45;;
12359;SDS011;6244;51.460;7.090;2023-03-08T14:38:39;9.98;;;6.65;;
12359;SDS011;6244;51.460;7.090;2023-03-08T14:43:36;8.23;;;6.00;;
12359;SDS011;6244;51.460;7.090;2023-03-08T14:48:33;8.27;;;5.88;;
12359;SDS011;6244;51.460;7.090;2023-03-08T14:53:31;9.48;;;6.53;;
12359;SDS011;6244;51.460;7.090;2023-03-08T14:58:31;9.13;;;6.22;;
12359;SDS011;6244;51.460;7.090;2023-03-08T15:03:29;10.30;;;7.35;;
12359;SDS011;6244;51.460;7.090;2023-03-08T15:08:27;8.63;;;6.90;;
12359;SDS011;6244;51.460;7.090;2023-03-08T15:13:24;10.75;;;7.38;;
12359;SDS011;6244;51.460;7.090;2023-03-08T15:18:22;10.75;;;7.28;;
12359;SDS011;6244;51.460;7.090;2023-03-08T15:23:19;10.68;;;7.10;;
12359;SDS011;6244;51.460;7.090;2023-03-08T15:28:19;10.30;;;7.50;;
12359;SDS011;6244;51.460;7.090;2023-03-08T15:33:17;10.98;;;7.68;;
12359;SDS011;6244;51.460;7.090;2023-03-08T15:38:15;12.40;;;8.02;;
12359;SDS011;6244;51.460;7.090;2023-03-08T15:43:13;13.88;;;9.13;;
12359;SDS011;6244;51.460;7.090;2023-03-08T15:48:11;12.23;;;8.50;;
12359;SDS011;6244;51.460;7.090;2023-03-08T15:53:09;13.25;;;8.43;;
12359;SDS011;6244;51.460;7.090;2023-03-08T15:58:08;12.27;;;9.02;;
12359;SDS011;6244;51.460;7.090;2023-03-08T16:03:04;13.18;;;8.65;;
12359;SDS011;6244;51.460;7.090;2023-03-08T16:08:01;14.70;;;9.63;;
12359;SDS011;6244;51.460;7.090;2023-03-08T16:12:58;14.95;;;10.60;;
12359;SDS011;6244;51.460;7.090;2023-03-08T16:17:56;17.10;;;11.38;;
12359;SDS011;6244;51.460;7.090;2023-03-08T16:22:52;18.73;;;12.43;;
12359;SDS011;6244;51.460;7.090;2023-03-08T16:27:49;21.48;;;14.50;;
12359;SDS011;6244;51.460;7.090;2023-03-08T16:32:47;22.58;;;16.00;;
12359;SDS011;6244;51.460;7.090;2023-03-08T16:37:44;21.77;;;14.02;;
12359;SDS011;6244;51.460;7.090;2023-03-08T16:42:41;21.15;;;13.70;;
12359;SDS011;6244;51.460;7.090;2023-03-08T16:47:38;17.75;;;12.52;;
12359;SDS011;6244;51.460;7.090;2023-03-08T16:52:34;16.58;;;11.05;;
12359;SDS011;6244;51.460;7.090;2023-03-08T16:57:32;18.35;;;12.43;;
12359;SDS011;6244;51.460;7.090;2023-03-08T17:02:28;17.23;;;11.68;;
12359;SDS011;6244;51.460;7.090;2023-03-08T17:07:25;16.80;;;11.57;;
12359;SDS011;6244;51.460;7.090;2023-03-08T17:12:21;17.98;;;12.05;;
12359;SDS011;6244;51.460;7.090;2023-03-08T17:17:19;18.90;;;12.77;;
12359;SDS011;6244;51.460;7.090;2023-03-08T17:22:16;20.17;;;13.75;;
12359;SDS011;6244;51.460;7.090;2023-03-08T17:27:13;18.85;;;12.35;;
12359;SDS011;6244;51.460;7.090;2023-03-08T17:32:10;21.02;;;13.75;;
12359;SDS011;6244;51.460;7.090;2023-03-08T17:37:07;21.75;;;14.85;;
12359;SDS011;6244;51.460;7.090;2023-03-08T17:42:06;28.08;;;16.98;;
12359;SDS011;6244;51.460;7.090;2023-03-08T17:47:04;22.70;;;14.15;;
12359;SDS011;6244;51.460;7.090;2023-03-08T17:52:00;26.10;;;17.10;;
12359;SDS011;6244;51.460;7.090;2023-03-08T17:56:58;22.83;;;13.82;;
12359;SDS011;6244;51.460;7.090;2023-03-08T18:01:55;31.85;;;20.00;;
12359;SDS011;6244;51.460;7.090;2023-03-08T18:06:51;26.85;;;18.40;;
12359;SDS011;6244;51.460;7.090;2023-03-08T18:11:48;25.75;;;17.63;;
12359;SDS011;6244;51.460;7.090;2023-03-08T18:16:45;24.48;;;15.73;;
12359;SDS011;6244;51.460;7.090;2023-03-08T18:21:42;35.53;;;21.48;;
12359;SDS011;6244;51.460;7.090;2023-03-08T18:26:40;35.28;;;19.52;;
12359;SDS011;6244;51.460;7.090;2023-03-08T18:31:36;37.10;;;23.30;;
12359;SDS011;6244;51.460;7.090;2023-03-08T18:36:35;31.55;;;19.05;;
12359;SDS011;6244;51.460;7.090;2023-03-08T18:41:32;33.58;;;21.38;;
12359;SDS011;6244;51.460;7.090;2023-03-08T18:46:30;31.02;;;17.73;;
12359;SDS011;6244;51.460;7.090;2023-03-08T18:51:28;30.05;;;17.98;;
12359;SDS011;6244;51.460;7.090;2023-03-08T18:56:26;41.05;;;26.15;;
12359;SDS011;6244;51.460;7.090;2023-03-08T19:01:23;31.30;;;20.50;;
12359;SDS011;6244;51.460;7.090;2023-03-08T19:06:20;40.42;;;25.75;;
12359;SDS011;6244;51.460;7.090;2023-03-08T19:11:18;26.02;;;16.60;;
12359;SDS011;6244;51.460;7.090;2023-03-08T19:16:17;30.02;;;20.00;;
12359;SDS011;6244;51.460;7.090;2023-03-08T19:21:15;28.23;;;19.23;;
12359;SDS011;6244;51.460;7.090;2023-03-08T19:26:13;27.75;;;17.50;;
12359;SDS011;6244;51.460;7.090;2023-03-08T19:31:31;29.27;;;17.70;;
12359;SDS011;6244;51.460;7.090;2023-03-08T19:36:30;28.70;;;18.58;;
12359;SDS011;6244;51.460;7.090;2023-03-08T19:41:27;27.80;;;16.20;;
12359;SDS011;6244;51.460;7.090;2023-03-08T19:46:23;27.77;;;16.65;;
12359;SDS011;6244;51.460;7.090;2023-03-08T19:51:21;26.02;;;18.00;;
12359;SDS011;6244;51.460;7.090;2023-03-08T19:56:18;29.38;;;16.95;;
12359;SDS011;6244;51.460;7.090;2023-03-08T20:01:16;27.40;;;15.93;;
12359;SDS011;6244;51.460;7.090;2023-03-08T20:06:19;26.65;;;17.08;;
12359;SDS011;6244;51.460;7.090;2023-03-08T20:11:19;26.05;;;16.92;;
12359;SDS011;6244;51.460;7.090;2023-03-08T20:16:16;84.43;;;57.28;;
12359;SDS011;6244;51.460;7.090;2023-03-08T20:21:14;51.33;;;38.72;;
12359;SDS011;6244;51.460;7.090;2023-03-08T20:26:12;35.13;;;23.65;;
12359;SDS011;6244;51.460;7.090;2023-03-08T20:31:09;29.75;;;20.02;;
12359;SDS011;6244;51.460;7.090;2023-03-08T20:36:06;30.48;;;18.73;;
12359;SDS011;6244;51.460;7.090;2023-03-08T20:41:03;23.85;;;16.02;;
12359;SDS011;6244;51.460;7.090;2023-03-08T20:46:05;23.95;;;16.05;;
12359;SDS011;6244;51.460;7.090;2023-03-08T20:51:03;25.88;;;17.95;;
12359;SDS011;6244;51.460;7.090;2023-03-08T20:56:03;24.52;;;16.02;;
12359;SDS011;6244;51.460;7.090;2023-03-08T21:01:00;22.75;;;13.52;;
12359;SDS011;6244;51.460;7.090;2023-03-08T21:06:09;23.83;;;14.23;;
12359;SDS011;6244;51.460;7.090;2023-03-08T21:11:07;26.63;;;15.80;;
12359;SDS011;6244;51.460;7.090;2023-03-08T21:16:05;26.38;;;16.08;;
12359;SDS011;6244;51.460;7.090;2023-03-08T21:21:03;30.17;;;16.60;;
12359;SDS011;6244;51.460;7.090;2023-03-08T21:26:02;27.95;;;17.13;;
12359;SDS011;6244;51.460;7.090;2023-03-08T21:30:59;28.40;;;17.17;;
12359;SDS011;6244;51.460;7.090;2023-03-08T21:35:55;30.05;;;17.45;;
12359;SDS011;6244;51.460;7.090;2023-03-08T21:40:52;26.63;;;16.55;;
12359;SDS011;6244;51.460;7.090;2023-03-08T21:45:50;29.30;;;16.75;;
12359;SDS011;6244;51.460;7.090;2023-03-08T21:50:47;27.42;;;16.08;;
12359;SDS011;6244;51.460;7.090;2023-03-08T21:55:43;30.35;;;16.08;;
12359;SDS011;6244;51.460;7.090;2023-03-08T22:00:40;28.80;;;16.55;;
12359;SDS011;6244;51.460;7.090;2023-03-08T22:05:38;36.28;;;19.83;;
12359;SDS011;6244;51.460;7.090;2023-03-08T22:10:34;31.23;;;18.30;;
12359;SDS011;6244;51.460;7.090;2023-03-08T22:15:31;28.45;;;16.52;;
12359;SDS011;6244;51.460;7.090;2023-03-08T22:20:27;25.48;;;16.85;;
12359;SDS011;6244;51.460;7.090;2023-03-08T22:25:25;27.27;;;15.43;;
12359;SDS011;6244;51.460;7.090;2023-03-08T22:30:21;26.80;;;15.32;;
12359;SDS011;6244;51.460;7.090;2023-03-08T22:35:19;24.20;;;14.00;;
12359;SDS011;6244;51.460;7.090;2023-03-08T22:40:16;23.17;;;14.15;;
12359;SDS011;6244;51.460;7.090;2023-03-08T22:45:15;22.30;;;12.93;;
12359;SDS011;6244;51.460;7.090;2023-03-08T22:50:11;22.83;;;13.25;;
12359;SDS011;6244;51.460;7.090;2023-03-08T22:55:08;21.63;;;12.77;;
12359;SDS011;6244;51.460;7.090;2023-03-08T23:00:06;21.35;;;12.80;;
12359;SDS011;6244;51.460;7.090;2023-03-08T23:05:10;21.45;;;14.13;;
12359;SDS011;6244;51.460;7.090;2023-03-08T23:10:09;22.17;;;13.18;;
12359;SDS011;6244;51.460;7.090;2023-03-08T23:15:07;22.73;;;12.95;;
12359;SDS011;6244;51.460;7.090;2023-03-08T23:20:05;22.92;;;13.52;;
12359;SDS011;6244;51.460;7.090;2023-03-08T23:25:04;23.17;;;13.73;;
12359;SDS011;6244;51.460;7.090;2023-03-08T23:30:02;24.10;;;13.32;;
12359;SDS011;6244;51.460;7.090;2023-03-08T23:34:59;26.52;;;14.32;;
12359;SDS011;6244;51.460;7.090;2023-03-08T23:39:55;21.48;;;13.02;;
12359;SDS011;6244;51.460;7.090;2023-03-08T23:44:53;20.75;;;11.95;;
12359;SDS011;6244;51.460;7.090;2023-03-08T23:49:50;21.38;;;12.60;;
12359;SDS011;6244;51.460;7.090;2023-03-08T23:54:46;20.95;;;12.25;;
12359;SDS011;6244;51.460;7.090;2023-03-08T23:59:43;23.00;;;12.60;;
